sensor_id;sensor_type;location;lat;lon;timestamp;P1;durP1;ratioP1;P2;durP2;ratioP2
2544;SDS011;36212;48.838;9.142;2023-11-19T00:00:05;15.45;;;14.95;;
2544;SDS011;36212;48.838;9.142;2023-11-19T00:02:45;15.43;;;14.93;;
2544;SDS011;36212;48.838;9.142;2023-11-19T00:05:19;17.08;;;16.52;;
2544;SDS011;36212;48.838;9.142;2023-11-19T00:07:51;16.63;;;16.00;;
2544;SDS011;36212;48.838;9.142;2023-11-19T00:10:23;18.27;;;17.67;;
2544;SDS011;36212;48.838;9.142;2023-11-19T00:12:56;19.33;;;18.42;;
2544;SDS011;36212;48.838;9.142;2023-11-19T00:15:29;19.40;;;18.77;;
2544;SDS011;36212;48.838;9.142;2023-11-19T00:18:01;22.27;;;21.48;;
2544;SDS011;36212;48.838;9.142;2023-11-19T00:20:36;20.27;;;19.65;;
2544;SDS011;36212;48.838;9.142;2023-11-19T00:23:09;22.45;;;21.65;;
2544;SDS011;36212;48.838;9.142;2023-11-19T00:25:41;23.70;;;22.80;;
2544;SDS011;36212;48.838;9.142;2023-11-19T00:28:14;22.08;;;21.38;;
2544;SDS011;36212;48.838;9.142;2023-11-19T00:30:47;28.30;;;27.35;;
2544;SDS011;36212;48.838;9.142;2023-11-19T00:33:19;27.73;;;26.77;;
2544;SDS011;36212;48.838;9.142;2023-11-19T00:35:51;27.20;;;26.30;;
2544;SDS011;36212;48.838;9.142;2023-11-19T00:38:24;26.00;;;25.13;;
2544;SDS011;36212;48.838;9.142;2023-11-19T00:40:56;30.25;;;29.27;;
2544;SDS011;36212;48.838;9.142;2023-11-19T00:43:28;30.25;;;29.25;;
2544;SDS011;36212;48.838;9.142;2023-11-19T00:46:01;27.77;;;26.77;;
2544;SDS011;36212;48.838;9.142;2023-11-19T00:48:37;26.15;;;25.27;;
2544;SDS011;36212;48.838;9.142;2023-11-19T00:51:11;31.75;;;30.75;;
2544;SDS011;36212;48.838;9.142;2023-11-19T00:53:44;28.05;;;27.15;;
2544;SDS011;36212;48.838;9.142;2023-11-19T00:56:16;29.73;;;28.75;;
2544;SDS011;36212;48.838;9.142;2023-11-19T00:58:49;27.50;;;26.60;;
2544;SDS011;36212;48.838;9.142;2023-11-19T01:01:21;26.90;;;25.48;;
2544;SDS011;36212;48.838;9.142;2023-11-19T01:03:55;24.60;;;23.90;;
2544;SDS011;36212;48.838;9.142;2023-11-19T01:06:30;24.98;;;24.17;;
2544;SDS011;36212;48.838;9.142;2023-11-19T01:09:02;25.58;;;24.77;;
2544;SDS011;36212;48.838;9.142;2023-11-19T01:11:35;27.27;;;26.38;;
2544;SDS011;36212;48.838;9.142;2023-11-19T01:14:08;27.48;;;26.58;;
2544;SDS011;36212;48.838;9.142;2023-11-19T01:16:40;22.60;;;21.90;;
2544;SDS011;36212;48.838;9.142;2023-11-19T01:19:13;25.70;;;24.90;;
2544;SDS011;36212;48.838;9.142;2023-11-19T01:21:49;24.60;;;23.80;;
2544;SDS011;36212;48.838;9.142;2023-11-19T01:24:22;24.52;;;23.77;;
2544;SDS011;36212;48.838;9.142;2023-11-19T01:26:54;25.50;;;24.70;;
2544;SDS011;36212;48.838;9.142;2023-11-19T01:29:27;23.67;;;22.98;;
2544;SDS011;36212;48.838;9.142;2023-11-19T01:32:00;24.30;;;23.55;;
2544;SDS011;36212;48.838;9.142;2023-11-19T01:34:32;24.27;;;23.48;;
2544;SDS011;36212;48.838;9.142;2023-11-19T01:37:06;23.77;;;23.08;;
2544;SDS011;36212;48.838;9.142;2023-11-19T01:39:45;21.17;;;20.52;;
2544;SDS011;36212;48.838;9.142;2023-11-19T01:42:30;22.88;;;22.17;;
2544;SDS011;36212;48.838;9.142;2023-11-19T01:45:10;22.00;;;21.38;;
2544;SDS011;36212;48.838;9.142;2023-11-19T01:48:09;22.13;;;21.42;;
2544;SDS011;36212;48.838;9.142;2023-11-19T01:50:44;22.88;;;22.17;;
2544;SDS011;36212;48.838;9.142;2023-11-19T01:53:23;23.77;;;23.08;;
2544;SDS011;36212;48.838;9.142;2023-11-19T01:55:57;22.92;;;22.23;;
2544;SDS011;36212;48.838;9.142;2023-11-19T01:58:30;21.58;;;20.95;;
2544;SDS011;36212;48.838;9.142;2023-11-19T02:01:03;20.33;;;19.73;;
2544;SDS011;36212;48.838;9.142;2023-11-19T02:03:37;23.35;;;22.65;;
2544;SDS011;36212;48.838;9.142;2023-11-19T02:06:11;21.17;;;20.40;;
2544;SDS011;36212;48.838;9.142;2023-11-19T02:08:44;22.60;;;21.90;;
2544;SDS011;36212;48.838;9.142;2023-11-19T02:11:16;20.92;;;20.27;;
2544;SDS011;36212;48.838;9.142;2023-11-19T02:13:49;23.55;;;22.85;;
2544;SDS011;36212;48.838;9.142;2023-11-19T02:16:21;20.70;;;20.00;;
2544;SDS011;36212;48.838;9.142;2023-11-19T02:18:54;21.70;;;21.10;;
2544;SDS011;36212;48.838;9.142;2023-11-19T02:21:26;21.90;;;21.20;;
2544;SDS011;36212;48.838;9.142;2023-11-19T02:23:58;19.52;;;18.95;;
2544;SDS011;36212;48.838;9.142;2023-11-19T02:26:40;22.52;;;21.83;;
2544;SDS011;36212;48.838;9.142;2023-11-19T02:29:32;22.73;;;22.02;;
2544;SDS011;36212;48.838;9.142;2023-11-19T02:32:07;23.00;;;22.30;;
2544;SDS011;36212;48.838;9.142;2023-11-19T02:34:44;25.88;;;25.08;;
2544;SDS011;36212;48.838;9.142;2023-11-19T02:37:16;26.20;;;25.40;;
2544;SDS011;36212;48.838;9.142;2023-11-19T02:39:50;26.77;;;25.98;;
2544;SDS011;36212;48.838;9.142;2023-11-19T02:42:23;24.38;;;23.67;;
2544;SDS011;36212;48.838;9.142;2023-11-19T02:44:55;26.30;;;25.50;;
2544;SDS011;36212;48.838;9.142;2023-11-19T02:47:27;27.13;;;26.33;;
2544;SDS011;36212;48.838;9.142;2023-11-19T02:50:02;25.10;;;24.23;;
2544;SDS011;36212;48.838;9.142;2023-11-19T02:52:43;26.40;;;25.60;;
2544;SDS011;36212;48.838;9.142;2023-11-19T02:55:18;26.10;;;25.30;;
2544;SDS011;36212;48.838;9.142;2023-11-19T02:57:51;26.75;;;25.75;;
2544;SDS011;36212;48.838;9.142;2023-11-19T03:00:26;22.25;;;21.60;;
2544;SDS011;36212;48.838;9.142;2023-11-19T03:03:12;23.58;;;22.88;;
2544;SDS011;36212;48.838;9.142;2023-11-19T03:05:54;23.67;;;22.90;;
2544;SDS011;36212;48.838;9.142;2023-11-19T03:08:27;23.95;;;23.25;;
2544;SDS011;36212;48.838;9.142;2023-11-19T03:10:59;25.42;;;24.63;;
2544;SDS011;36212;48.838;9.142;2023-11-19T03:13:32;26.20;;;25.40;;
2544;SDS011;36212;48.838;9.142;2023-11-19T03:16:04;28.25;;;27.35;;
2544;SDS011;36212;48.838;9.142;2023-11-19T03:18:38;26.65;;;25.85;;
2544;SDS011;36212;48.838;9.142;2023-11-19T03:21:11;26.65;;;25.65;;
2544;SDS011;36212;48.838;9.142;2023-11-19T03:23:44;27.00;;;26.20;;
2544;SDS011;36212;48.838;9.142;2023-11-19T03:26:16;26.40;;;25.60;;
2544;SDS011;36212;48.838;9.142;2023-11-19T03:28:49;25.25;;;24.45;;
2544;SDS011;36212;48.838;9.142;2023-11-19T03:31:21;26.10;;;25.30;;
2544;SDS011;36212;48.838;9.142;2023-11-19T03:33:53;25.17;;;24.40;;
2544;SDS011;36212;48.838;9.142;2023-11-19T03:36:33;24.85;;;24.05;;
2544;SDS011;36212;48.838;9.142;2023-11-19T03:39:05;22.92;;;22.23;;
2544;SDS011;36212;48.838;9.142;2023-11-19T03:41:38;22.88;;;22.17;;
2544;SDS011;36212;48.838;9.142;2023-11-19T03:44:15;20.00;;;19.30;;
2544;SDS011;36212;48.838;9.142;2023-11-19T03:46:49;21.77;;;21.15;;
2544;SDS011;36212;48.838;9.142;2023-11-19T03:49:21;20.38;;;19.77;;
2544;SDS011;36212;48.838;9.142;2023-11-19T03:51:55;19.83;;;19.13;;
2544;SDS011;36212;48.838;9.142;2023-11-19T03:54:27;20.95;;;20.35;;
2544;SDS011;36212;48.838;9.142;2023-11-19T03:57:00;19.48;;;18.88;;
2544;SDS011;36212;48.838;9.142;2023-11-19T03:59:35;20.30;;;19.60;;
2544;SDS011;36212;48.838;9.142;2023-11-19T04:02:08;22.00;;;21.33;;
2544;SDS011;36212;48.838;9.142;2023-11-19T04:04:40;22.48;;;21.77;;
2544;SDS011;36212;48.838;9.142;2023-11-19T04:07:12;23.05;;;22.35;;
2544;SDS011;36212;48.838;9.142;2023-11-19T04:09:45;24.40;;;23.60;;
2544;SDS011;36212;48.838;9.142;2023-11-19T04:12:18;25.98;;;24.98;;
2544;SDS011;36212;48.838;9.142;2023-11-19T04:14:52;27.80;;;26.95;;
2544;SDS011;36212;48.838;9.142;2023-11-19T04:17:27;29.60;;;28.50;;
2544;SDS011;36212;48.838;9.142;2023-11-19T04:20:00;31.40;;;30.40;;
2544;SDS011;36212;48.838;9.142;2023-11-19T04:22:35;33.33;;;32.33;;
2544;SDS011;36212;48.838;9.142;2023-11-19T04:25:08;34.45;;;33.35;;
2544;SDS011;36212;48.838;9.142;2023-11-19T04:27:41;33.05;;;31.95;;
2544;SDS011;36212;48.838;9.142;2023-11-19T04:30:13;35.53;;;34.42;;
2544;SDS011;36212;48.838;9.142;2023-11-19T04:32:47;37.50;;;36.33;;
2544;SDS011;36212;48.838;9.142;2023-11-19T04:35:20;38.70;;;37.47;;
2544;SDS011;36212;48.838;9.142;2023-11-19T04:37:53;43.50;;;42.03;;
2544;SDS011;36212;48.838;9.142;2023-11-19T04:40:27;43.72;;;42.33;;
2544;SDS011;36212;48.838;9.142;2023-11-19T04:42:59;47.97;;;46.42;;
2544;SDS011;36212;48.838;9.142;2023-11-19T04:45:32;45.83;;;44.33;;
2544;SDS011;36212;48.838;9.142;2023-11-19T04:48:04;42.35;;;41.00;;
2544;SDS011;36212;48.838;9.142;2023-11-19T04:50:36;44.13;;;42.72;;
2544;SDS011;36212;48.838;9.142;2023-11-19T04:53:09;45.72;;;44.13;;
2544;SDS011;36212;48.838;9.142;2023-11-19T04:55:41;47.13;;;45.58;;
2544;SDS011;36212;48.838;9.142;2023-11-19T04:58:14;43.10;;;41.72;;
2544;SDS011;36212;48.838;9.142;2023-11-19T05:00:47;43.53;;;42.13;;
2544;SDS011;36212;48.838;9.142;2023-11-19T05:03:19;47.05;;;45.50;;
2544;SDS011;36212;48.838;9.142;2023-11-19T05:05:53;43.05;;;41.65;;
2544;SDS011;36212;48.838;9.142;2023-11-19T05:08:26;44.85;;;43.45;;
2544;SDS011;36212;48.838;9.142;2023-11-19T05:10:58;37.45;;;36.25;;
2544;SDS011;36212;48.838;9.142;2023-11-19T05:13:31;41.75;;;40.42;;
2544;SDS011;36212;48.838;9.142;2023-11-19T05:16:03;39.58;;;38.28;;
2544;SDS011;36212;48.838;9.142;2023-11-19T05:18:36;39.65;;;38.35;;
2544;SDS011;36212;48.838;9.142;2023-11-19T05:21:11;41.40;;;40.10;;
2544;SDS011;36212;48.838;9.142;2023-11-19T05:23:44;38.75;;;37.00;;
2544;SDS011;36212;48.838;9.142;2023-11-19T05:26:17;37.88;;;36.67;;
2544;SDS011;36212;48.838;9.142;2023-11-19T05:28:53;36.25;;;35.15;;
2544;SDS011;36212;48.838;9.142;2023-11-19T05:31:26;39.28;;;38.08;;
2544;SDS011;36212;48.838;9.142;2023-11-19T05:33:58;39.28;;;37.65;;
2544;SDS011;36212;48.838;9.142;2023-11-19T05:36:30;38.35;;;37.15;;
2544;SDS011;36212;48.838;9.142;2023-11-19T05:39:03;37.38;;;36.17;;
2544;SDS011;36212;48.838;9.142;2023-11-19T05:41:36;34.08;;;33.03;;
2544;SDS011;36212;48.838;9.142;2023-11-19T05:44:09;36.42;;;35.25;;
2544;SDS011;36212;48.838;9.142;2023-11-19T05:46:41;35.60;;;34.50;;
2544;SDS011;36212;48.838;9.142;2023-11-19T05:49:15;36.03;;;34.90;;
2544;SDS011;36212;48.838;9.142;2023-11-19T05:51:47;35.85;;;34.75;;
2544;SDS011;36212;48.838;9.142;2023-11-19T05:54:20;37.00;;;35.80;;
2544;SDS011;36212;48.838;9.142;2023-11-19T05:56:52;31.60;;;30.60;;
2544;SDS011;36212;48.838;9.142;2023-11-19T05:59:25;32.25;;;31.25;;
2544;SDS011;36212;48.838;9.142;2023-11-19T06:01:58;33.90;;;32.80;;
2544;SDS011;36212;48.838;9.142;2023-11-19T06:04:30;31.88;;;30.88;;
2544;SDS011;36212;48.838;9.142;2023-11-19T06:07:03;30.55;;;29.55;;
2544;SDS011;36212;48.838;9.142;2023-11-19T06:09:36;31.20;;;30.20;;
2544;SDS011;36212;48.838;9.142;2023-11-19T06:12:10;29.20;;;28.30;;
2544;SDS011;36212;48.838;9.142;2023-11-19T06:14:44;32.00;;;30.90;;
2544;SDS011;36212;48.838;9.142;2023-11-19T06:17:16;30.70;;;29.70;;
2544;SDS011;36212;48.838;9.142;2023-11-19T06:19:48;30.33;;;29.42;;
2544;SDS011;36212;48.838;9.142;2023-11-19T06:22:21;27.42;;;26.58;;
2544;SDS011;36212;48.838;9.142;2023-11-19T06:24:53;26.45;;;25.65;;
2544;SDS011;36212;48.838;9.142;2023-11-19T06:27:25;28.50;;;27.58;;
2544;SDS011;36212;48.838;9.142;2023-11-19T06:29:58;30.52;;;29.52;;
2544;SDS011;36212;48.838;9.142;2023-11-19T06:32:31;28.02;;;27.13;;
2544;SDS011;36212;48.838;9.142;2023-11-19T06:35:04;28.08;;;27.17;;
2544;SDS011;36212;48.838;9.142;2023-11-19T06:37:40;27.58;;;26.77;;
2544;SDS011;36212;48.838;9.142;2023-11-19T06:40:13;26.85;;;26.05;;
2544;SDS011;36212;48.838;9.142;2023-11-19T06:42:47;27.23;;;26.35;;
2544;SDS011;36212;48.838;9.142;2023-11-19T06:45:19;30.23;;;29.33;;
2544;SDS011;36212;48.838;9.142;2023-11-19T06:47:52;33.50;;;32.42;;
2544;SDS011;36212;48.838;9.142;2023-11-19T06:50:24;28.60;;;27.70;;
2544;SDS011;36212;48.838;9.142;2023-11-19T06:52:56;27.58;;;26.70;;
2544;SDS011;36212;48.838;9.142;2023-11-19T06:55:29;27.05;;;26.25;;
2544;SDS011;36212;48.838;9.142;2023-11-19T06:58:02;26.73;;;25.83;;
2544;SDS011;36212;48.838;9.142;2023-11-19T07:00:35;27.45;;;26.65;;
2544;SDS011;36212;48.838;9.142;2023-11-19T07:03:08;27.05;;;26.05;;
2544;SDS011;36212;48.838;9.142;2023-11-19T07:05:41;25.60;;;24.80;;
2544;SDS011;36212;48.838;9.142;2023-11-19T07:08:14;22.75;;;22.05;;
2544;SDS011;36212;48.838;9.142;2023-11-19T07:10:46;23.83;;;23.02;;
2544;SDS011;36212;48.838;9.142;2023-11-19T07:13:19;23.63;;;22.58;;
2544;SDS011;36212;48.838;9.142;2023-11-19T07:15:51;20.77;;;20.17;;
2544;SDS011;36212;48.838;9.142;2023-11-19T07:18:25;24.30;;;23.60;;
2544;SDS011;36212;48.838;9.142;2023-11-19T07:20:58;26.08;;;25.27;;
2544;SDS011;36212;48.838;9.142;2023-11-19T07:23:34;22.95;;;22.23;;
2544;SDS011;36212;48.838;9.142;2023-11-19T07:26:06;23.30;;;22.60;;
2544;SDS011;36212;48.838;9.142;2023-11-19T07:28:42;23.90;;;23.20;;
2544;SDS011;36212;48.838;9.142;2023-11-19T07:31:16;21.17;;;19.98;;
2544;SDS011;36212;48.838;9.142;2023-11-19T07:33:51;19.52;;;18.92;;
2544;SDS011;36212;48.838;9.142;2023-11-19T07:36:24;23.23;;;22.52;;
2544;SDS011;36212;48.838;9.142;2023-11-19T07:38:56;20.75;;;20.15;;
2544;SDS011;36212;48.838;9.142;2023-11-19T07:41:29;20.75;;;20.05;;
2544;SDS011;36212;48.838;9.142;2023-11-19T07:44:02;19.95;;;19.35;;
2544;SDS011;36212;48.838;9.142;2023-11-19T07:46:35;20.02;;;19.30;;
2544;SDS011;36212;48.838;9.142;2023-11-19T07:49:07;16.45;;;15.95;;
2544;SDS011;36212;48.838;9.142;2023-11-19T07:51:41;20.60;;;19.90;;
2544;SDS011;36212;48.838;9.142;2023-11-19T07:54:13;21.45;;;20.67;;
2544;SDS011;36212;48.838;9.142;2023-11-19T07:56:45;17.75;;;17.15;;
2544;SDS011;36212;48.838;9.142;2023-11-19T07:59:19;15.52;;;15.13;;
2544;SDS011;36212;48.838;9.142;2023-11-19T08:01:52;18.17;;;17.60;;
2544;SDS011;36212;48.838;9.142;2023-11-19T08:04:24;18.05;;;17.55;;
2544;SDS011;36212;48.838;9.142;2023-11-19T08:06:57;17.48;;;16.90;;
2544;SDS011;36212;48.838;9.142;2023-11-19T08:09:29;18.15;;;17.65;;
2544;SDS011;36212;48.838;9.142;2023-11-19T08:12:03;16.05;;;15.45;;
2544;SDS011;36212;48.838;9.142;2023-11-19T08:14:37;16.20;;;15.70;;
2544;SDS011;36212;48.838;9.142;2023-11-19T08:17:10;15.50;;;14.75;;
2544;SDS011;36212;48.838;9.142;2023-11-19T08:19:42;13.05;;;12.65;;
2544;SDS011;36212;48.838;9.142;2023-11-19T08:22:15;13.90;;;13.50;;
2544;SDS011;36212;48.838;9.142;2023-11-19T08:24:48;13.23;;;12.73;;
2544;SDS011;36212;48.838;9.142;2023-11-19T08:27:21;12.30;;;12.00;;
2544;SDS011;36212;48.838;9.142;2023-11-19T08:29:58;12.68;;;12.32;;
2544;SDS011;36212;48.838;9.142;2023-11-19T08:32:31;10.77;;;10.48;;
2544;SDS011;36212;48.838;9.142;2023-11-19T08:35:05;11.55;;;10.98;;
2544;SDS011;36212;48.838;9.142;2023-11-19T08:37:38;10.63;;;10.32;;
2544;SDS011;36212;48.838;9.142;2023-11-19T08:40:10;9.70;;;9.50;;
2544;SDS011;36212;48.838;9.142;2023-11-19T08:42:44;9.20;;;8.80;;
2544;SDS011;36212;48.838;9.142;2023-11-19T08:45:25;9.80;;;9.40;;
2544;SDS011;36212;48.838;9.142;2023-11-19T08:48:56;9.80;;;9.60;;
2544;SDS011;36212;48.838;9.142;2023-11-19T08:51:30;8.00;;;7.80;;
2544;SDS011;36212;48.838;9.142;2023-11-19T08:54:03;7.65;;;7.45;;
2544;SDS011;36212;48.838;9.142;2023-11-19T08:56:36;6.47;;;6.28;;
2544;SDS011;36212;48.838;9.142;2023-11-19T08:59:11;6.18;;;6.07;;
2544;SDS011;36212;48.838;9.142;2023-11-19T09:01:47;6.10;;;5.90;;
2544;SDS011;36212;48.838;9.142;2023-11-19T09:04:19;5.10;;;4.90;;
2544;SDS011;36212;48.838;9.142;2023-11-19T09:06:54;4.35;;;4.15;;
2544;SDS011;36212;48.838;9.142;2023-11-19T09:09:29;5.10;;;5.00;;
2544;SDS011;36212;48.838;9.142;2023-11-19T09:12:06;5.50;;;5.40;;
2544;SDS011;36212;48.838;9.142;2023-11-19T09:14:39;4.80;;;4.60;;
2544;SDS011;36212;48.838;9.142;2023-11-19T09:17:12;4.80;;;4.70;;
2544;SDS011;36212;48.838;9.142;2023-11-19T09:19:45;4.25;;;4.15;;
2544;SDS011;36212;48.838;9.142;2023-11-19T09:22:18;4.10;;;4.00;;
2544;SDS011;36212;48.838;9.142;2023-11-19T09:24:51;3.78;;;3.60;;
2544;SDS011;36212;48.838;9.142;2023-11-19T09:27:24;4.13;;;3.83;;
2544;SDS011;36212;48.838;9.142;2023-11-19T09:29:58;4.43;;;4.32;;
2544;SDS011;36212;48.838;9.142;2023-11-19T09:32:31;4.15;;;3.95;;
2544;SDS011;36212;48.838;9.142;2023-11-19T09:35:04;4.50;;;4.30;;
2544;SDS011;36212;48.838;9.142;2023-11-19T09:37:38;4.00;;;3.90;;
2544;SDS011;36212;48.838;9.142;2023-11-19T09:40:11;4.00;;;3.80;;
2544;SDS011;36212;48.838;9.142;2023-11-19T09:42:44;3.85;;;3.75;;
2544;SDS011;36212;48.838;9.142;2023-11-19T09:45:20;3.85;;;3.65;;
2544;SDS011;36212;48.838;9.142;2023-11-19T09:47:57;4.03;;;3.92;;
2544;SDS011;36212;48.838;9.142;2023-11-19T09:50:33;4.10;;;4.00;;
2544;SDS011;36212;48.838;9.142;2023-11-19T09:53:06;3.45;;;3.35;;
2544;SDS011;36212;48.838;9.142;2023-11-19T09:55:39;8.82;;;4.50;;
2544;SDS011;36212;48.838;9.142;2023-11-19T09:58:12;3.65;;;3.50;;
2544;SDS011;36212;48.838;9.142;2023-11-19T10:00:47;3.63;;;3.42;;
2544;SDS011;36212;48.838;9.142;2023-11-19T10:03:42;4.65;;;4.35;;
2544;SDS011;36212;48.838;9.142;2023-11-19T10:06:20;3.28;;;3.10;;
2544;SDS011;36212;48.838;9.142;2023-11-19T10:08:54;3.50;;;3.22;;
2544;SDS011;36212;48.838;9.142;2023-11-19T10:11:27;3.20;;;3.10;;
2544;SDS011;36212;48.838;9.142;2023-11-19T10:14:00;4.20;;;3.80;;
2544;SDS011;36212;48.838;9.142;2023-11-19T10:16:34;2.75;;;2.65;;
2544;SDS011;36212;48.838;9.142;2023-11-19T10:19:08;2.45;;;2.35;;
2544;SDS011;36212;48.838;9.142;2023-11-19T10:21:51;4.70;;;2.60;;
2544;SDS011;36212;48.838;9.142;2023-11-19T10:24:31;2.10;;;1.90;;
2544;SDS011;36212;48.838;9.142;2023-11-19T10:27:14;2.20;;;2.10;;
2544;SDS011;36212;48.838;9.142;2023-11-19T10:29:48;1.80;;;1.70;;
2544;SDS011;36212;48.838;9.142;2023-11-19T10:32:21;2.55;;;1.95;;
2544;SDS011;36212;48.838;9.142;2023-11-19T10:35:04;2.00;;;1.90;;
2544;SDS011;36212;48.838;9.142;2023-11-19T10:37:39;2.55;;;2.40;;
2544;SDS011;36212;48.838;9.142;2023-11-19T10:40:11;2.40;;;2.20;;
2544;SDS011;36212;48.838;9.142;2023-11-19T10:42:45;2.10;;;2.00;;
2544;SDS011;36212;48.838;9.142;2023-11-19T10:45:24;2.17;;;2.08;;
2544;SDS011;36212;48.838;9.142;2023-11-19T10:47:56;1.90;;;1.80;;
2544;SDS011;36212;48.838;9.142;2023-11-19T10:50:30;1.98;;;1.88;;
2544;SDS011;36212;48.838;9.142;2023-11-19T10:53:04;1.80;;;1.70;;
2544;SDS011;36212;48.838;9.142;2023-11-19T10:55:40;1.90;;;1.80;;
2544;SDS011;36212;48.838;9.142;2023-11-19T10:58:17;2.50;;;2.30;;
2544;SDS011;36212;48.838;9.142;2023-11-19T11:00:52;2.20;;;2.10;;
2544;SDS011;36212;48.838;9.142;2023-11-19T11:03:39;1.85;;;1.75;;
2544;SDS011;36212;48.838;9.142;2023-11-19T11:06:13;2.10;;;2.00;;
2544;SDS011;36212;48.838;9.142;2023-11-19T11:08:46;1.90;;;1.80;;
2544;SDS011;36212;48.838;9.142;2023-11-19T11:11:19;2.00;;;1.80;;
2544;SDS011;36212;48.838;9.142;2023-11-19T11:13:58;2.83;;;2.25;;
2544;SDS011;36212;48.838;9.142;2023-11-19T11:16:34;2.05;;;1.95;;
2544;SDS011;36212;48.838;9.142;2023-11-19T11:19:13;2.00;;;1.90;;
2544;SDS011;36212;48.838;9.142;2023-11-19T11:21:53;2.20;;;2.10;;
2544;SDS011;36212;48.838;9.142;2023-11-19T11:25:11;2.58;;;2.38;;
2544;SDS011;36212;48.838;9.142;2023-11-19T11:28:31;2.53;;;2.33;;
2544;SDS011;36212;48.838;9.142;2023-11-19T11:34:59;2.25;;;2.15;;
2544;SDS011;36212;48.838;9.142;2023-11-19T11:38:04;2.10;;;2.00;;
2544;SDS011;36212;48.838;9.142;2023-11-19T11:40:39;2.10;;;2.00;;
2544;SDS011;36212;48.838;9.142;2023-11-19T11:49:25;2.50;;;2.40;;
2544;SDS011;36212;48.838;9.142;2023-11-19T11:52:00;2.10;;;2.00;;
2544;SDS011;36212;48.838;9.142;2023-11-19T11:54:35;2.33;;;2.20;;
2544;SDS011;36212;48.838;9.142;2023-11-19T11:57:14;2.53;;;2.33;;
2544;SDS011;36212;48.838;9.142;2023-11-19T11:59:52;2.40;;;2.30;;
2544;SDS011;36212;48.838;9.142;2023-11-19T12:02:25;2.35;;;2.20;;
2544;SDS011;36212;48.838;9.142;2023-11-19T12:04:59;2.70;;;2.50;;
2544;SDS011;36212;48.838;9.142;2023-11-19T12:07:36;2.10;;;2.00;;
2544;SDS011;36212;48.838;9.142;2023-11-19T12:10:11;2.03;;;1.92;;
2544;SDS011;36212;48.838;9.142;2023-11-19T12:12:46;1.85;;;1.75;;
2544;SDS011;36212;48.838;9.142;2023-11-19T12:15:22;2.10;;;2.00;;
2544;SDS011;36212;48.838;9.142;2023-11-19T12:17:58;2.47;;;2.38;;
2544;SDS011;36212;48.838;9.142;2023-11-19T12:20:31;3.03;;;2.05;;
2544;SDS011;36212;48.838;9.142;2023-11-19T12:23:10;5.10;;;2.20;;
2544;SDS011;36212;48.838;9.142;2023-11-19T12:25:44;2.38;;;2.17;;
2544;SDS011;36212;48.838;9.142;2023-11-19T12:28:17;2.80;;;2.67;;
2544;SDS011;36212;48.838;9.142;2023-11-19T12:30:51;3.65;;;2.30;;
2544;SDS011;36212;48.838;9.142;2023-11-19T12:33:38;3.00;;;2.80;;
2544;SDS011;36212;48.838;9.142;2023-11-19T12:36:11;2.55;;;2.45;;
2544;SDS011;36212;48.838;9.142;2023-11-19T12:38:44;2.80;;;2.70;;
2544;SDS011;36212;48.838;9.142;2023-11-19T12:41:18;2.80;;;2.60;;
2544;SDS011;36212;48.838;9.142;2023-11-19T12:43:54;3.00;;;2.90;;
2544;SDS011;36212;48.838;9.142;2023-11-19T12:46:42;2.70;;;2.60;;
2544;SDS011;36212;48.838;9.142;2023-11-19T12:49:22;2.95;;;2.75;;
2544;SDS011;36212;48.838;9.142;2023-11-19T12:52:11;2.60;;;2.42;;
2544;SDS011;36212;48.838;9.142;2023-11-19T12:54:45;2.70;;;2.60;;
2544;SDS011;36212;48.838;9.142;2023-11-19T12:57:18;2.60;;;2.50;;
2544;SDS011;36212;48.838;9.142;2023-11-19T13:00:19;2.78;;;2.60;;
2544;SDS011;36212;48.838;9.142;2023-11-19T13:02:57;2.63;;;2.53;;
2544;SDS011;36212;48.838;9.142;2023-11-19T13:05:31;3.25;;;3.03;;
2544;SDS011;36212;48.838;9.142;2023-11-19T13:08:07;2.72;;;2.63;;
2544;SDS011;36212;48.838;9.142;2023-11-19T13:10:50;2.70;;;2.60;;
2544;SDS011;36212;48.838;9.142;2023-11-19T13:13:24;2.90;;;2.80;;
2544;SDS011;36212;48.838;9.142;2023-11-19T13:16:03;3.10;;;3.00;;
2544;SDS011;36212;48.838;9.142;2023-11-19T13:18:39;2.80;;;2.70;;
2544;SDS011;36212;48.838;9.142;2023-11-19T13:21:15;3.45;;;3.35;;
2544;SDS011;36212;48.838;9.142;2023-11-19T13:23:49;3.45;;;3.22;;
2544;SDS011;36212;48.838;9.142;2023-11-19T13:26:22;3.63;;;3.53;;
2544;SDS011;36212;48.838;9.142;2023-11-19T13:28:55;3.20;;;3.10;;
2544;SDS011;36212;48.838;9.142;2023-11-19T13:31:28;3.20;;;3.00;;
2544;SDS011;36212;48.838;9.142;2023-11-19T13:34:02;3.10;;;3.00;;
2544;SDS011;36212;48.838;9.142;2023-11-19T13:36:37;3.60;;;3.40;;
2544;SDS011;36212;48.838;9.142;2023-11-19T13:39:10;2.70;;;2.60;;
2544;SDS011;36212;48.838;9.142;2023-11-19T13:41:52;4.07;;;3.88;;
2544;SDS011;36212;48.838;9.142;2023-11-19T13:44:44;4.00;;;3.70;;
2544;SDS011;36212;48.838;9.142;2023-11-19T13:47:17;2.80;;;2.70;;
2544;SDS011;36212;48.838;9.142;2023-11-19T13:49:50;2.80;;;2.60;;
2544;SDS011;36212;48.838;9.142;2023-11-19T13:52:23;3.00;;;2.90;;
2544;SDS011;36212;48.838;9.142;2023-11-19T13:54:56;3.22;;;3.03;;
2544;SDS011;36212;48.838;9.142;2023-11-19T13:57:30;3.08;;;2.88;;
2544;SDS011;36212;48.838;9.142;2023-11-19T14:00:06;3.20;;;3.10;;
2544;SDS011;36212;48.838;9.142;2023-11-19T14:02:47;3.50;;;3.22;;
2544;SDS011;36212;48.838;9.142;2023-11-19T14:05:20;3.60;;;3.35;;
2544;SDS011;36212;48.838;9.142;2023-11-19T14:07:56;3.83;;;3.67;;
2544;SDS011;36212;48.838;9.142;2023-11-19T14:10:31;3.83;;;3.63;;
2544;SDS011;36212;48.838;9.142;2023-11-19T14:13:04;4.80;;;4.70;;
2544;SDS011;36212;48.838;9.142;2023-11-19T14:15:37;4.30;;;4.20;;
2544;SDS011;36212;48.838;9.142;2023-11-19T14:18:10;4.22;;;4.03;;
2544;SDS011;36212;48.838;9.142;2023-11-19T14:20:42;4.88;;;4.68;;
2544;SDS011;36212;48.838;9.142;2023-11-19T14:23:16;4.57;;;4.25;;
2544;SDS011;36212;48.838;9.142;2023-11-19T14:25:49;4.45;;;4.35;;
2544;SDS011;36212;48.838;9.142;2023-11-19T14:28:21;5.50;;;5.00;;
2544;SDS011;36212;48.838;9.142;2023-11-19T14:30:56;5.00;;;4.80;;
2544;SDS011;36212;48.838;9.142;2023-11-19T14:33:29;4.90;;;4.60;;
2544;SDS011;36212;48.838;9.142;2023-11-19T14:36:02;3.80;;;3.67;;
2544;SDS011;36212;48.838;9.142;2023-11-19T14:38:37;4.28;;;4.05;;
2544;SDS011;36212;48.838;9.142;2023-11-19T14:41:11;3.80;;;3.60;;
2544;SDS011;36212;48.838;9.142;2023-11-19T14:43:43;3.95;;;3.75;;
2544;SDS011;36212;48.838;9.142;2023-11-19T14:46:17;3.80;;;3.60;;
2544;SDS011;36212;48.838;9.142;2023-11-19T14:48:50;3.50;;;3.40;;
2544;SDS011;36212;48.838;9.142;2023-11-19T14:51:23;3.80;;;3.60;;
2544;SDS011;36212;48.838;9.142;2023-11-19T14:53:56;3.55;;;3.45;;
2544;SDS011;36212;48.838;9.142;2023-11-19T14:56:30;3.90;;;3.65;;
2544;SDS011;36212;48.838;9.142;2023-11-19T14:59:02;3.75;;;3.55;;
2544;SDS011;36212;48.838;9.142;2023-11-19T15:01:35;3.28;;;3.17;;
2544;SDS011;36212;48.838;9.142;2023-11-19T15:04:08;4.00;;;3.80;;
2544;SDS011;36212;48.838;9.142;2023-11-19T15:06:41;3.72;;;3.55;;
2544;SDS011;36212;48.838;9.142;2023-11-19T15:09:14;3.63;;;3.53;;
2544;SDS011;36212;48.838;9.142;2023-11-19T15:11:54;3.72;;;3.28;;
2544;SDS011;36212;48.838;9.142;2023-11-19T15:14:28;4.05;;;3.75;;
2544;SDS011;36212;48.838;9.142;2023-11-19T15:17:03;4.10;;;3.90;;
2544;SDS011;36212;48.838;9.142;2023-11-19T15:19:39;4.10;;;3.90;;
2544;SDS011;36212;48.838;9.142;2023-11-19T15:22:12;3.85;;;3.55;;
2544;SDS011;36212;48.838;9.142;2023-11-19T15:24:46;4.25;;;4.05;;
2544;SDS011;36212;48.838;9.142;2023-11-19T15:27:19;4.30;;;4.10;;
2544;SDS011;36212;48.838;9.142;2023-11-19T15:29:52;4.72;;;4.53;;
2544;SDS011;36212;48.838;9.142;2023-11-19T15:32:24;4.80;;;4.60;;
2544;SDS011;36212;48.838;9.142;2023-11-19T15:34:57;5.00;;;4.80;;
2544;SDS011;36212;48.838;9.142;2023-11-19T15:37:31;5.20;;;5.10;;
2544;SDS011;36212;48.838;9.142;2023-11-19T15:40:05;4.88;;;4.72;;